sensor_id;sensor_type;location;lat;lon;timestamp;P1;durP1;ratioP1;P2;durP2;ratioP2
80705;SDS011;70229;48.010;7.852;2023-07-29T00:01:33;2.08;;;1.10;;
80705;SDS011;70229;48.010;7.852;2023-07-29T00:03:59;1.92;;;0.70;;
80705;SDS011;70229;48.010;7.852;2023-07-29T00:06:25;2.15;;;0.85;;
80705;SDS011;70229;48.010;7.852;2023-07-29T00:08:50;1.98;;;0.85;;
80705;SDS011;70229;48.010;7.852;2023-07-29T00:11:16;2.92;;;1.30;;
80705;SDS011;70229;48.010;7.852;2023-07-29T00:13:41;1.92;;;0.90;;
80705;SDS011;70229;48.010;7.852;2023-07-29T00:16:07;1.15;;;0.60;;
80705;SDS011;70229;48.010;7.852;2023-07-29T00:18:32;1.98;;;0.63;;
80705;SDS011;70229;48.010;7.852;2023-07-29T00:20:58;4.47;;;0.93;;
80705;SDS011;70229;48.010;7.852;2023-07-29T00:23:24;0.75;;;0.57;;
80705;SDS011;70229;48.010;7.852;2023-07-29T00:25:49;2.42;;;1.02;;
80705;SDS011;70229;48.010;7.852;2023-07-29T00:28:15;3.70;;;0.93;;
80705;SDS011;70229;48.010;7.852;2023-07-29T00:30:40;1.77;;;0.90;;
80705;SDS011;70229;48.010;7.852;2023-07-29T00:33:06;2.17;;;1.00;;
80705;SDS011;70229;48.010;7.852;2023-07-29T00:35:32;3.78;;;0.93;;
80705;SDS011;70229;48.010;7.852;2023-07-29T00:37:57;1.60;;;0.90;;
80705;SDS011;70229;48.010;7.852;2023-07-29T00:40:23;1.65;;;0.63;;
80705;SDS011;70229;48.010;7.852;2023-07-29T00:42:49;3.47;;;0.98;;
80705;SDS011;70229;48.010;7.852;2023-07-29T00:45:15;6.40;;;1.00;;
80705;SDS011;70229;48.010;7.852;2023-07-29T00:47:42;2.97;;;1.30;;
80705;SDS011;70229;48.010;7.852;2023-07-29T00:50:09;1.90;;;1.10;;
80705;SDS011;70229;48.010;7.852;2023-07-29T00:52:36;4.45;;;1.20;;
80705;SDS011;70229;48.010;7.852;2023-07-29T00:55:02;2.60;;;1.20;;
80705;SDS011;70229;48.010;7.852;2023-07-29T00:57:28;2.85;;;0.63;;
80705;SDS011;70229;48.010;7.852;2023-07-29T00:59:55;2.65;;;1.08;;
80705;SDS011;70229;48.010;7.852;2023-07-29T01:02:21;2.65;;;1.15;;
80705;SDS011;70229;48.010;7.852;2023-07-29T01:04:51;3.15;;;1.02;;
80705;SDS011;70229;48.010;7.852;2023-07-29T01:09:51;2.88;;;1.27;;
80705;SDS011;70229;48.010;7.852;2023-07-29T01:13:02;3.80;;;1.50;;
80705;SDS011;70229;48.010;7.852;2023-07-29T01:15:43;7.37;;;1.13;;
80705;SDS011;70229;48.010;7.852;2023-07-29T01:18:38;1.95;;;1.00;;
80705;SDS011;70229;48.010;7.852;2023-07-29T01:21:07;3.85;;;1.38;;
80705;SDS011;70229;48.010;7.852;2023-07-29T01:23:34;2.00;;;0.80;;
80705;SDS011;70229;48.010;7.852;2023-07-29T01:26:00;3.13;;;1.33;;
80705;SDS011;70229;48.010;7.852;2023-07-29T01:28:27;1.92;;;1.15;;
80705;SDS011;70229;48.010;7.852;2023-07-29T01:30:57;3.40;;;1.17;;
80705;SDS011;70229;48.010;7.852;2023-07-29T01:33:36;3.60;;;1.25;;
80705;SDS011;70229;48.010;7.852;2023-07-29T01:36:29;1.90;;;0.73;;
80705;SDS011;70229;48.010;7.852;2023-07-29T01:38:59;3.53;;;1.33;;
80705;SDS011;70229;48.010;7.852;2023-07-29T01:41:26;2.75;;;1.30;;
80705;SDS011;70229;48.010;7.852;2023-07-29T01:43:52;3.05;;;1.27;;
80705;SDS011;70229;48.010;7.852;2023-07-29T01:46:18;3.45;;;1.42;;
80705;SDS011;70229;48.010;7.852;2023-07-29T01:48:44;3.75;;;1.45;;
80705;SDS011;70229;48.010;7.852;2023-07-29T01:51:11;4.55;;;1.60;;
80705;SDS011;70229;48.010;7.852;2023-07-29T01:53:37;2.22;;;1.08;;
80705;SDS011;70229;48.010;7.852;2023-07-29T01:56:03;2.38;;;1.17;;
80705;SDS011;70229;48.010;7.852;2023-07-29T01:58:28;3.13;;;1.38;;
80705;SDS011;70229;48.010;7.852;2023-07-29T02:00:54;4.50;;;1.58;;
80705;SDS011;70229;48.010;7.852;2023-07-29T02:03:20;3.42;;;1.60;;
80705;SDS011;70229;48.010;7.852;2023-07-29T02:05:45;6.03;;;2.33;;
80705;SDS011;70229;48.010;7.852;2023-07-29T02:08:11;3.70;;;1.38;;
80705;SDS011;70229;48.010;7.852;2023-07-29T02:10:36;2.90;;;1.05;;
80705;SDS011;70229;48.010;7.852;2023-07-29T02:13:02;4.65;;;1.40;;
80705;SDS011;70229;48.010;7.852;2023-07-29T02:15:28;2.42;;;1.08;;
80705;SDS011;70229;48.010;7.852;2023-07-29T02:17:54;2.58;;;1.25;;
80705;SDS011;70229;48.010;7.852;2023-07-29T02:20:19;1.92;;;1.13;;
80705;SDS011;70229;48.010;7.852;2023-07-29T02:22:45;3.85;;;1.63;;
80705;SDS011;70229;48.010;7.852;2023-07-29T02:25:11;2.83;;;1.30;;
80705;SDS011;70229;48.010;7.852;2023-07-29T02:27:36;3.55;;;1.23;;
80705;SDS011;70229;48.010;7.852;2023-07-29T02:30:02;3.33;;;1.13;;
80705;SDS011;70229;48.010;7.852;2023-07-29T02:32:28;3.00;;;1.30;;
80705;SDS011;70229;48.010;7.852;2023-07-29T02:34:54;2.25;;;1.00;;
80705;SDS011;70229;48.010;7.852;2023-07-29T02:37:19;2.80;;;1.25;;
80705;SDS011;70229;48.010;7.852;2023-07-29T02:39:45;6.15;;;1.50;;
80705;SDS011;70229;48.010;7.852;2023-07-29T02:42:11;7.07;;;1.45;;
80705;SDS011;70229;48.010;7.852;2023-07-29T02:44:36;2.63;;;1.00;;
80705;SDS011;70229;48.010;7.852;2023-07-29T02:47:02;2.97;;;1.25;;
80705;SDS011;70229;48.010;7.852;2023-07-29T02:49:28;6.95;;;0.70;;
80705;SDS011;70229;48.010;7.852;2023-07-29T02:51:54;3.72;;;0.90;;
80705;SDS011;70229;48.010;7.852;2023-07-29T02:54:19;2.38;;;1.00;;
80705;SDS011;70229;48.010;7.852;2023-07-29T02:56:45;2.17;;;0.80;;
80705;SDS011;70229;48.010;7.852;2023-07-29T02:59:10;0.82;;;0.60;;
80705;SDS011;70229;48.010;7.852;2023-07-29T03:01:36;4.28;;;0.90;;
80705;SDS011;70229;48.010;7.852;2023-07-29T03:04:02;4.75;;;1.48;;
80705;SDS011;70229;48.010;7.852;2023-07-29T03:06:28;1.83;;;0.77;;
80705;SDS011;70229;48.010;7.852;2023-07-29T03:08:53;2.72;;;1.33;;
80705;SDS011;70229;48.010;7.852;2023-07-29T03:11:19;2.55;;;0.93;;
80705;SDS011;70229;48.010;7.852;2023-07-29T03:13:44;2.42;;;1.15;;
80705;SDS011;70229;48.010;7.852;2023-07-29T03:16:14;1.58;;;0.73;;
80705;SDS011;70229;48.010;7.852;2023-07-29T03:18:41;2.88;;;1.13;;
80705;SDS011;70229;48.010;7.852;2023-07-29T03:21:07;5.95;;;1.35;;
80705;SDS011;70229;48.010;7.852;2023-07-29T03:23:34;5.82;;;1.23;;
80705;SDS011;70229;48.010;7.852;2023-07-29T03:26:00;2.50;;;1.17;;
80705;SDS011;70229;48.010;7.852;2023-07-29T03:28:29;3.67;;;1.13;;
80705;SDS011;70229;48.010;7.852;2023-07-29T03:30:58;2.72;;;1.02;;
80705;SDS011;70229;48.010;7.852;2023-07-29T03:33:24;3.47;;;1.08;;
80705;SDS011;70229;48.010;7.852;2023-07-29T03:35:51;2.58;;;1.15;;
80705;SDS011;70229;48.010;7.852;2023-07-29T03:38:17;2.20;;;1.00;;
80705;SDS011;70229;48.010;7.852;2023-07-29T03:40:43;1.90;;;1.13;;
80705;SDS011;70229;48.010;7.852;2023-07-29T03:43:09;4.85;;;1.17;;
80705;SDS011;70229;48.010;7.852;2023-07-29T03:45:35;4.32;;;1.25;;
80705;SDS011;70229;48.010;7.852;2023-07-29T03:48:01;2.25;;;0.88;;
80705;SDS011;70229;48.010;7.852;2023-07-29T03:50:28;2.15;;;1.00;;
80705;SDS011;70229;48.010;7.852;2023-07-29T03:52:54;2.00;;;0.85;;
80705;SDS011;70229;48.010;7.852;2023-07-29T03:55:20;2.15;;;1.00;;
80705;SDS011;70229;48.010;7.852;2023-07-29T03:57:46;2.95;;;1.30;;
80705;SDS011;70229;48.010;7.852;2023-07-29T04:00:11;3.55;;;1.27;;
80705;SDS011;70229;48.010;7.852;2023-07-29T04:02:37;1.63;;;0.90;;
80705;SDS011;70229;48.010;7.852;2023-07-29T04:05:05;2.03;;;1.00;;
80705;SDS011;70229;48.010;7.852;2023-07-29T04:07:33;2.38;;;1.02;;
80705;SDS011;70229;48.010;7.852;2023-07-29T04:10:02;1.35;;;0.80;;
80705;SDS011;70229;48.010;7.852;2023-07-29T04:12:30;1.88;;;0.88;;
80705;SDS011;70229;48.010;7.852;2023-07-29T04:14:55;1.48;;;0.70;;
80705;SDS011;70229;48.010;7.852;2023-07-29T04:17:21;4.03;;;1.65;;
80705;SDS011;70229;48.010;7.852;2023-07-29T04:19:46;2.33;;;0.88;;
80705;SDS011;70229;48.010;7.852;2023-07-29T04:22:12;2.90;;;0.98;;
80705;SDS011;70229;48.010;7.852;2023-07-29T04:24:38;3.30;;;1.27;;
80705;SDS011;70229;48.010;7.852;2023-07-29T04:27:03;6.18;;;1.63;;
80705;SDS011;70229;48.010;7.852;2023-07-29T04:29:29;1.85;;;0.93;;
80705;SDS011;70229;48.010;7.852;2023-07-29T04:31:55;2.75;;;0.95;;
80705;SDS011;70229;48.010;7.852;2023-07-29T04:34:20;1.80;;;0.90;;
80705;SDS011;70229;48.010;7.852;2023-07-29T04:36:46;2.08;;;0.82;;
80705;SDS011;70229;48.010;7.852;2023-07-29T04:39:12;2.92;;;1.10;;
80705;SDS011;70229;48.010;7.852;2023-07-29T04:41:38;1.67;;;0.90;;
80705;SDS011;70229;48.010;7.852;2023-07-29T04:44:04;5.03;;;1.08;;
80705;SDS011;70229;48.010;7.852;2023-07-29T04:46:29;2.38;;;1.20;;
80705;SDS011;70229;48.010;7.852;2023-07-29T04:48:55;3.25;;;1.17;;
80705;SDS011;70229;48.010;7.852;2023-07-29T04:51:21;2.15;;;0.93;;
80705;SDS011;70229;48.010;7.852;2023-07-29T04:53:46;1.95;;;1.10;;
80705;SDS011;70229;48.010;7.852;2023-07-29T04:56:12;2.75;;;1.40;;
80705;SDS011;70229;48.010;7.852;2023-07-29T04:58:38;1.95;;;0.93;;
80705;SDS011;70229;48.010;7.852;2023-07-29T05:01:03;2.28;;;1.02;;
80705;SDS011;70229;48.010;7.852;2023-07-29T05:03:29;3.17;;;1.60;;
80705;SDS011;70229;48.010;7.852;2023-07-29T05:05:56;1.95;;;1.13;;
80705;SDS011;70229;48.010;7.852;2023-07-29T05:08:22;2.72;;;1.15;;
80705;SDS011;70229;48.010;7.852;2023-07-29T05:10:49;2.25;;;1.17;;
80705;SDS011;70229;48.010;7.852;2023-07-29T05:13:15;3.53;;;1.80;;
80705;SDS011;70229;48.010;7.852;2023-07-29T05:15:41;4.88;;;1.20;;
80705;SDS011;70229;48.010;7.852;2023-07-29T05:18:06;3.38;;;1.30;;
80705;SDS011;70229;48.010;7.852;2023-07-29T05:20:32;2.40;;;0.90;;
80705;SDS011;70229;48.010;7.852;2023-07-29T05:22:57;3.17;;;1.40;;
80705;SDS011;70229;48.010;7.852;2023-07-29T05:25:23;3.20;;;1.70;;
80705;SDS011;70229;48.010;7.852;2023-07-29T05:27:48;3.13;;;1.35;;
80705;SDS011;70229;48.010;7.852;2023-07-29T05:30:14;2.25;;;1.10;;
80705;SDS011;70229;48.010;7.852;2023-07-29T05:32:39;5.85;;;1.48;;
80705;SDS011;70229;48.010;7.852;2023-07-29T05:35:05;2.20;;;1.30;;
80705;SDS011;70229;48.010;7.852;2023-07-29T05:37:31;2.05;;;0.88;;
80705;SDS011;70229;48.010;7.852;2023-07-29T05:39:57;3.45;;;1.35;;
80705;SDS011;70229;48.010;7.852;2023-07-29T05:42:23;2.90;;;1.33;;
80705;SDS011;70229;48.010;7.852;2023-07-29T05:44:48;5.57;;;1.40;;
80705;SDS011;70229;48.010;7.852;2023-07-29T05:47:14;2.90;;;1.38;;
80705;SDS011;70229;48.010;7.852;2023-07-29T05:49:39;4.20;;;1.60;;
80705;SDS011;70229;48.010;7.852;2023-07-29T05:52:05;4.57;;;1.67;;
80705;SDS011;70229;48.010;7.852;2023-07-29T05:54:31;3.45;;;1.55;;
80705;SDS011;70229;48.010;7.852;2023-07-29T05:56:56;3.33;;;1.60;;
80705;SDS011;70229;48.010;7.852;2023-07-29T05:59:22;5.72;;;1.60;;
80705;SDS011;70229;48.010;7.852;2023-07-29T06:01:47;2.65;;;1.50;;
80705;SDS011;70229;48.010;7.852;2023-07-29T06:04:13;2.83;;;1.23;;
80705;SDS011;70229;48.010;7.852;2023-07-29T06:06:38;2.20;;;1.00;;
80705;SDS011;70229;48.010;7.852;2023-07-29T06:09:04;4.57;;;1.38;;
80705;SDS011;70229;48.010;7.852;2023-07-29T06:11:29;2.47;;;1.20;;
80705;SDS011;70229;48.010;7.852;2023-07-29T06:13:55;5.95;;;1.23;;
80705;SDS011;70229;48.010;7.852;2023-07-29T06:16:21;2.67;;;1.50;;
80705;SDS011;70229;48.010;7.852;2023-07-29T06:18:46;3.38;;;1.55;;
80705;SDS011;70229;48.010;7.852;2023-07-29T06:21:12;5.00;;;2.10;;
80705;SDS011;70229;48.010;7.852;2023-07-29T06:23:42;2.75;;;1.42;;
80705;SDS011;70229;48.010;7.852;2023-07-29T06:26:08;2.85;;;1.45;;
80705;SDS011;70229;48.010;7.852;2023-07-29T06:28:33;3.13;;;1.42;;
80705;SDS011;70229;48.010;7.852;2023-07-29T06:30:59;4.75;;;1.48;;
80705;SDS011;70229;48.010;7.852;2023-07-29T06:33:24;2.75;;;1.35;;
80705;SDS011;70229;48.010;7.852;2023-07-29T06:35:50;3.28;;;1.60;;
80705;SDS011;70229;48.010;7.852;2023-07-29T06:38:15;3.80;;;1.35;;
80705;SDS011;70229;48.010;7.852;2023-07-29T06:40:46;3.60;;;1.83;;
80705;SDS011;70229;48.010;7.852;2023-07-29T06:43:12;2.78;;;1.40;;
80705;SDS011;70229;48.010;7.852;2023-07-29T06:45:38;3.47;;;1.75;;
80705;SDS011;70229;48.010;7.852;2023-07-29T06:48:03;9.00;;;3.17;;
80705;SDS011;70229;48.010;7.852;2023-07-29T06:50:29;5.32;;;1.88;;
80705;SDS011;70229;48.010;7.852;2023-07-29T06:52:55;2.88;;;1.67;;
80705;SDS011;70229;48.010;7.852;2023-07-29T06:55:20;3.10;;;1.13;;
80705;SDS011;70229;48.010;7.852;2023-07-29T06:57:46;3.90;;;1.80;;
80705;SDS011;70229;48.010;7.852;2023-07-29T07:00:11;4.60;;;2.03;;
80705;SDS011;70229;48.010;7.852;2023-07-29T07:02:37;5.40;;;1.38;;
80705;SDS011;70229;48.010;7.852;2023-07-29T07:05:03;1.75;;;0.73;;
80705;SDS011;70229;48.010;7.852;2023-07-29T07:07:28;2.60;;;1.35;;
80705;SDS011;70229;48.010;7.852;2023-07-29T07:09:54;4.47;;;1.88;;
80705;SDS011;70229;48.010;7.852;2023-07-29T07:12:19;3.33;;;1.55;;
80705;SDS011;70229;48.010;7.852;2023-07-29T07:14:45;3.58;;;1.48;;
80705;SDS011;70229;48.010;7.852;2023-07-29T07:17:11;4.25;;;1.65;;
80705;SDS011;70229;48.010;7.852;2023-07-29T07:19:36;1.33;;;0.80;;
80705;SDS011;70229;48.010;7.852;2023-07-29T07:22:02;5.35;;;2.05;;
80705;SDS011;70229;48.010;7.852;2023-07-29T07:24:28;2.75;;;1.52;;
80705;SDS011;70229;48.010;7.852;2023-07-29T07:26:53;3.42;;;1.20;;
80705;SDS011;70229;48.010;7.852;2023-07-29T07:29:19;2.10;;;1.30;;
80705;SDS011;70229;48.010;7.852;2023-07-29T07:31:49;3.05;;;1.40;;
80705;SDS011;70229;48.010;7.852;2023-07-29T07:34:17;3.78;;;1.20;;
80705;SDS011;70229;48.010;7.852;2023-07-29T07:36:43;4.15;;;1.48;;
80705;SDS011;70229;48.010;7.852;2023-07-29T07:39:09;4.28;;;1.45;;
80705;SDS011;70229;48.010;7.852;2023-07-29T07:41:34;3.40;;;1.55;;
80705;SDS011;70229;48.010;7.852;2023-07-29T07:44:00;3.85;;;2.03;;
80705;SDS011;70229;48.010;7.852;2023-07-29T07:46:25;3.55;;;1.48;;
80705;SDS011;70229;48.010;7.852;2023-07-29T07:48:51;4.18;;;1.52;;
80705;SDS011;70229;48.010;7.852;2023-07-29T07:51:20;2.42;;;1.10;;
80705;SDS011;70229;48.010;7.852;2023-07-29T07:53:45;3.50;;;1.75;;
80705;SDS011;70229;48.010;7.852;2023-07-29T07:56:11;3.67;;;1.70;;
80705;SDS011;70229;48.010;7.852;2023-07-29T07:58:37;3.30;;;1.38;;
80705;SDS011;70229;48.010;7.852;2023-07-29T08:01:04;4.75;;;1.65;;
80705;SDS011;70229;48.010;7.852;2023-07-29T08:03:31;3.13;;;1.58;;
80705;SDS011;70229;48.010;7.852;2023-07-29T08:05:57;6.25;;;2.03;;
80705;SDS011;70229;48.010;7.852;2023-07-29T08:08:23;4.53;;;1.83;;
80705;SDS011;70229;48.010;7.852;2023-07-29T08:10:48;2.85;;;1.38;;
80705;SDS011;70229;48.010;7.852;2023-07-29T08:13:14;4.10;;;1.42;;
80705;SDS011;70229;48.010;7.852;2023-07-29T08:15:40;3.92;;;1.95;;
80705;SDS011;70229;48.010;7.852;2023-07-29T08:18:08;3.17;;;1.63;;
80705;SDS011;70229;48.010;7.852;2023-07-29T08:20:34;4.82;;;1.88;;
80705;SDS011;70229;48.010;7.852;2023-07-29T08:22:59;5.35;;;1.52;;
80705;SDS011;70229;48.010;7.852;2023-07-29T08:25:25;2.90;;;1.58;;
80705;SDS011;70229;48.010;7.852;2023-07-29T08:27:51;3.25;;;1.67;;
80705;SDS011;70229;48.010;7.852;2023-07-29T08:30:16;4.05;;;2.05;;
80705;SDS011;70229;48.010;7.852;2023-07-29T08:32:43;3.45;;;1.80;;
80705;SDS011;70229;48.010;7.852;2023-07-29T08:35:09;5.28;;;2.72;;
80705;SDS011;70229;48.010;7.852;2023-07-29T08:37:35;3.28;;;1.75;;
80705;SDS011;70229;48.010;7.852;2023-07-29T08:40:01;4.55;;;1.63;;
80705;SDS011;70229;48.010;7.852;2023-07-29T08:42:31;3.97;;;1.70;;
80705;SDS011;70229;48.010;7.852;2023-07-29T08:44:57;3.22;;;1.45;;
80705;SDS011;70229;48.010;7.852;2023-07-29T08:47:30;5.33;;;2.20;;
80705;SDS011;70229;48.010;7.852;2023-07-29T08:49:56;3.00;;;1.58;;
80705;SDS011;70229;48.010;7.852;2023-07-29T08:52:23;4.85;;;2.20;;
80705;SDS011;70229;48.010;7.852;2023-07-29T08:54:49;3.35;;;1.60;;
80705;SDS011;70229;48.010;7.852;2023-07-29T08:57:17;4.20;;;1.63;;
80705;SDS011;70229;48.010;7.852;2023-07-29T08:59:43;3.50;;;1.65;;
80705;SDS011;70229;48.010;7.852;2023-07-29T09:02:10;2.97;;;1.85;;
80705;SDS011;70229;48.010;7.852;2023-07-29T09:04:36;3.67;;;1.98;;
80705;SDS011;70229;48.010;7.852;2023-07-29T09:07:01;6.05;;;1.75;;
80705;SDS011;70229;48.010;7.852;2023-07-29T09:09:27;5.70;;;1.77;;
80705;SDS011;70229;48.010;7.852;2023-07-29T09:11:53;4.13;;;1.90;;
80705;SDS011;70229;48.010;7.852;2023-07-29T09:14:19;3.40;;;1.23;;
80705;SDS011;70229;48.010;7.852;2023-07-29T09:16:45;5.18;;;1.65;;
80705;SDS011;70229;48.010;7.852;2023-07-29T09:19:11;4.50;;;1.40;;
80705;SDS011;70229;48.010;7.852;2023-07-29T09:21:40;3.90;;;1.80;;
80705;SDS011;70229;48.010;7.852;2023-07-29T09:24:06;5.85;;;1.52;;
80705;SDS011;70229;48.010;7.852;2023-07-29T09:26:33;3.13;;;1.45;;
80705;SDS011;70229;48.010;7.852;2023-07-29T09:28:59;3.38;;;2.00;;
80705;SDS011;70229;48.010;7.852;2023-07-29T09:31:25;3.67;;;2.28;;
80705;SDS011;70229;48.010;7.852;2023-07-29T09:34:03;6.32;;;2.05;;
80705;SDS011;70229;48.010;7.852;2023-07-29T09:36:30;3.20;;;1.85;;
80705;SDS011;70229;48.010;7.852;2023-07-29T09:38:57;5.80;;;1.83;;
80705;SDS011;70229;48.010;7.852;2023-07-29T09:41:27;13.00;;;2.45;;
80705;SDS011;70229;48.010;7.852;2023-07-29T09:43:57;2.95;;;1.60;;
80705;SDS011;70229;48.010;7.852;2023-07-29T09:46:24;5.13;;;1.80;;
80705;SDS011;70229;48.010;7.852;2023-07-29T09:48:52;6.82;;;2.95;;
80705;SDS011;70229;48.010;7.852;2023-07-29T09:51:21;3.70;;;2.17;;
80705;SDS011;70229;48.010;7.852;2023-07-29T09:53:47;4.80;;;2.28;;
80705;SDS011;70229;48.010;7.852;2023-07-29T09:56:15;4.75;;;2.25;;
80705;SDS011;70229;48.010;7.852;2023-07-29T09:58:42;6.55;;;1.88;;
80705;SDS011;70229;48.010;7.852;2023-07-29T10:01:11;3.75;;;2.40;;
80705;SDS011;70229;48.010;7.852;2023-07-29T10:03:37;3.53;;;1.73;;
80705;SDS011;70229;48.010;7.852;2023-07-29T10:06:06;4.65;;;2.03;;
80705;SDS011;70229;48.010;7.852;2023-07-29T10:08:32;5.75;;;2.50;;
80705;SDS011;70229;48.010;7.852;2023-07-29T10:11:03;2.83;;;1.70;;
80705;SDS011;70229;48.010;7.852;2023-07-29T10:13:33;6.45;;;2.05;;
80705;SDS011;70229;48.010;7.852;2023-07-29T10:15:59;3.50;;;2.05;;
80705;SDS011;70229;48.010;7.852;2023-07-29T10:18:28;3.58;;;1.77;;
80705;SDS011;70229;48.010;7.852;2023-07-29T10:20:56;7.32;;;2.25;;
80705;SDS011;70229;48.010;7.852;2023-07-29T10:23:23;3.50;;;1.95;;
80705;SDS011;70229;48.010;7.852;2023-07-29T10:25:55;4.70;;;2.40;;
80705;SDS011;70229;48.010;7.852;2023-07-29T10:28:29;3.47;;;1.92;;
80705;SDS011;70229;48.010;7.852;2023-07-29T10:30:56;8.10;;;1.67;;
80705;SDS011;70229;48.010;7.852;2023-07-29T10:33:22;3.50;;;1.77;;
80705;SDS011;70229;48.010;7.852;2023-07-29T10:35:48;3.45;;;1.80;;
80705;SDS011;70229;48.010;7.852;2023-07-29T10:38:14;4.47;;;1.63;;
80705;SDS011;70229;48.010;7.852;2023-07-29T10:41:14;5.68;;;2.20;;
80705;SDS011;70229;48.010;7.852;2023-07-29T10:43:33;3.40;;;1.98;;
80705;SDS011;70229;48.010;7.852;2023-07-29T10:48:56;6.55;;;2.05;;
80705;SDS011;70229;48.010;7.852;2023-07-29T10:51:26;3.60;;;1.75;;
80705;SDS011;70229;48.010;7.852;2023-07-29T10:54:08;5.60;;;1.80;;
80705;SDS011;70229;48.010;7.852;2023-07-29T10:56:35;4.65;;;1.90;;
80705;SDS011;70229;48.010;7.852;2023-07-29T11:01:37;3.63;;;1.70;;
80705;SDS011;70229;48.010;7.852;2023-07-29T11:10:05;3.90;;;2.03;;
80705;SDS011;70229;48.010;7.852;2023-07-29T11:12:50;3.65;;;2.00;;
80705;SDS011;70229;48.010;7.852;2023-07-29T11:20:19;4.47;;;1.80;;
80705;SDS011;70229;48.010;7.852;2023-07-29T11:22:58;3.85;;;2.13;;
80705;SDS011;70229;48.010;7.852;2023-07-29T11:25:27;4.13;;;2.15;;
80705;SDS011;70229;48.010;7.852;2023-07-29T11:27:54;3.20;;;1.63;;
80705;SDS011;70229;48.010;7.852;2023-07-29T11:30:21;2.95;;;1.48;;
80705;SDS011;70229;48.010;7.852;2023-07-29T11:32:48;4.75;;;1.90;;
80705;SDS011;70229;48.010;7.852;2023-07-29T11:35:15;3.95;;;1.65;;
80705;SDS011;70229;48.010;7.852;2023-07-29T11:37:45;2.03;;;1.30;;
80705;SDS011;70229;48.010;7.852;2023-07-29T11:40:22;2.63;;;1.48;;
80705;SDS011;70229;48.010;7.852;2023-07-29T11:42:49;3.33;;;1.40;;
80705;SDS011;70229;48.010;7.852;2023-07-29T11:45:16;3.63;;;2.00;;
80705;SDS011;70229;48.010;7.852;2023-07-29T11:47:44;4.05;;;1.50;;
80705;SDS011;70229;48.010;7.852;2023-07-29T11:50:11;5.22;;;1.70;;
80705;SDS011;70229;48.010;7.852;2023-07-29T11:52:44;3.88;;;1.77;;
80705;SDS011;70229;48.010;7.852;2023-07-29T11:55:11;5.55;;;1.40;;
80705;SDS011;70229;48.010;7.852;2023-07-29T11:57:38;3.40;;;1.60;;
80705;SDS011;70229;48.010;7.852;2023-07-29T12:00:05;3.50;;;1.70;;
80705;SDS011;70229;48.010;7.852;2023-07-29T12:02:36;3.38;;;1.60;;
80705;SDS011;70229;48.010;7.852;2023-07-29T12:05:03;2.60;;;1.30;;
80705;SDS011;70229;48.010;7.852;2023-07-29T12:07:30;3.55;;;1.58;;
80705;SDS011;70229;48.010;7.852;2023-07-29T12:09:58;3.42;;;1.80;;
80705;SDS011;70229;48.010;7.852;2023-07-29T12:12:24;4.57;;;1.98;;
80705;SDS011;70229;48.010;7.852;2023-07-29T12:14:49;3.30;;;2.05;;
80705;SDS011;70229;48.010;7.852;2023-07-29T12:17:15;4.30;;;1.52;;
80705;SDS011;70229;48.010;7.852;2023-07-29T12:19:41;2.65;;;1.20;;
80705;SDS011;70229;48.010;7.852;2023-07-29T12:22:08;2.38;;;1.40;;
80705;SDS011;70229;48.010;7.852;2023-07-29T12:24:36;3.50;;;1.90;;
80705;SDS011;70229;48.010;7.852;2023-07-29T12:27:03;4.88;;;1.42;;
80705;SDS011;70229;48.010;7.852;2023-07-29T12:29:29;3.53;;;1.80;;
80705;SDS011;70229;48.010;7.852;2023-07-29T12:31:58;3.42;;;1.60;;
80705;SDS011;70229;48.010;7.852;2023-07-29T12:34:26;2.95;;;1.45;;
80705;SDS011;70229;48.010;7.852;2023-07-29T12:36:53;3.05;;;1.23;;
80705;SDS011;70229;48.010;7.852;2023-07-29T12:39:21;3.25;;;1.73;;
80705;SDS011;70229;48.010;7.852;2023-07-29T12:41:48;2.53;;;1.52;;
80705;SDS011;70229;48.010;7.852;2023-07-29T12:44:15;3.15;;;1.60;;
80705;SDS011;70229;48.010;7.852;2023-07-29T12:46:40;2.50;;;1.23;;
80705;SDS011;70229;48.010;7.852;2023-07-29T12:49:06;2.88;;;1.35;;
80705;SDS011;70229;48.010;7.852;2023-07-29T12:51:32;4.05;;;1.50;;
80705;SDS011;70229;48.010;7.852;2023-07-29T12:53:58;3.63;;;1.88;;
80705;SDS011;70229;48.010;7.852;2023-07-29T12:56:23;3.28;;;1.65;;
80705;SDS011;70229;48.010;7.852;2023-07-29T12:58:49;3.15;;;1.60;;
80705;SDS011;70229;48.010;7.852;2023-07-29T13:01:15;3.22;;;1.77;;
80705;SDS011;70229;48.010;7.852;2023-07-29T13:03:44;2.65;;;1.58;;
80705;SDS011;70229;48.010;7.852;2023-07-29T13:06:09;2.72;;;1.20;;
80705;SDS011;70229;48.010;7.852;2023-07-29T13:08:35;3.13;;;1.75;;
80705;SDS011;70229;48.010;7.852;2023-07-29T13:11:01;4.20;;;2.20;;
80705;SDS011;70229;48.010;7.852;2023-07-29T13:13:28;2.15;;;1.30;;
80705;SDS011;70229;48.010;7.852;2023-07-29T13:15:54;2.97;;;1.38;;
80705;SDS011;70229;48.010;7.852;2023-07-29T13:18:21;8.00;;;2.03;;
80705;SDS011;70229;48.010;7.852;2023-07-29T13:20:46;4.10;;;2.10;;
80705;SDS011;70229;48.010;7.852;2023-07-29T13:23:12;3.65;;;1.48;;
80705;SDS011;70229;48.010;7.852;2023-07-29T13:25:38;3.55;;;1.55;;
80705;SDS011;70229;48.010;7.852;2023-07-29T13:28:03;2.28;;;1.40;;
80705;SDS011;70229;48.010;7.852;2023-07-29T13:30:29;3.55;;;1.77;;
80705;SDS011;70229;48.010;7.852;2023-07-29T13:32:55;3.75;;;1.95;;
80705;SDS011;70229;48.010;7.852;2023-07-29T13:35:21;3.50;;;1.80;;
80705;SDS011;70229;48.010;7.852;2023-07-29T13:37:46;4.38;;;1.45;;
80705;SDS011;70229;48.010;7.852;2023-07-29T13:40:12;4.60;;;1.70;;
80705;SDS011;70229;48.010;7.852;2023-07-29T13:42:37;3.92;;;1.58;;
80705;SDS011;70229;48.010;7.852;2023-07-29T13:45:03;2.92;;;1.60;;
80705;SDS011;70229;48.010;7.852;2023-07-29T13:47:29;4.38;;;2.17;;
80705;SDS011;70229;48.010;7.852;2023-07-29T13:49:54;3.72;;;1.73;;
80705;SDS011;70229;48.010;7.852;2023-07-29T13:52:20;2.78;;;1.27;;
80705;SDS011;70229;48.010;7.852;2023-07-29T13:54:45;3.30;;;1.85;;
80705;SDS011;70229;48.010;7.852;2023-07-29T13:57:11;3.75;;;1.77;;
80705;SDS011;70229;48.010;7.852;2023-07-29T13:59:36;3.75;;;1.95;;
80705;SDS011;70229;48.010;7.852;2023-07-29T14:02:05;2.90;;;1.65;;
80705;SDS011;70229;48.010;7.852;2023-07-29T14:04:31;3.42;;;1.92;;
80705;SDS011;70229;48.010;7.852;2023-07-29T14:06:57;2.17;;;1.20;;
80705;SDS011;70229;48.010;7.852;2023-07-29T14:09:23;3.78;;;1.50;;
80705;SDS011;70229;48.010;7.852;2023-07-29T14:11:50;4.05;;;1.77;;
80705;SDS011;70229;48.010;7.852;2023-07-29T14:14:15;4.00;;;1.45;;
80705;SDS011;70229;48.010;7.852;2023-07-29T14:16:41;2.95;;;1.60;;
80705;SDS011;70229;48.010;7.852;2023-07-29T14:19:06;2.35;;;1.52;;
80705;SDS011;70229;48.010;7.852;2023-07-29T14:21:32;2.60;;;1.33;;
80705;SDS011;70229;48.010;7.852;2023-07-29T14:23:57;3.45;;;1.48;;
80705;SDS011;70229;48.010;7.852;2023-07-29T14:26:23;3.05;;;1.63;;
80705;SDS011;70229;48.010;7.852;2023-07-29T14:28:49;3.28;;;1.73;;
80705;SDS011;70229;48.010;7.852;2023-07-29T14:31:15;2.88;;;1.38;;
80705;SDS011;70229;48.010;7.852;2023-07-29T14:33:42;3.30;;;1.77;;
80705;SDS011;70229;48.010;7.852;2023-07-29T14:36:08;4.80;;;1.42;;
80705;SDS011;70229;48.010;7.852;2023-07-29T14:38:34;4.25;;;1.65;;
80705;SDS011;70229;48.010;7.852;2023-07-29T14:41:00;2.88;;;1.40;;
80705;SDS011;70229;48.010;7.852;2023-07-29T14:43:26;4.35;;;1.92;;
80705;SDS011;70229;48.010;7.852;2023-07-29T14:45:51;6.65;;;3.67;;
80705;SDS011;70229;48.010;7.852;2023-07-29T14:48:17;6.85;;;2.47;;
80705;SDS011;70229;48.010;7.852;2023-07-29T14:50:43;3.63;;;2.00;;
80705;SDS011;70229;48.010;7.852;2023-07-29T14:53:09;4.32;;;2.33;;
80705;SDS011;70229;48.010;7.852;2023-07-29T14:55:36;5.47;;;2.00;;
80705;SDS011;70229;48.010;7.852;2023-07-29T14:58:02;2.90;;;1.70;;
80705;SDS011;70229;48.010;7.852;2023-07-29T15:00:27;5.32;;;2.55;;
80705;SDS011;70229;48.010;7.852;2023-07-29T15:02:53;4.40;;;2.10;;
80705;SDS011;70229;48.010;7.852;2023-07-29T15:05:19;6.00;;;2.28;;